sensor_id;sensor_type;location;lat;lon;timestamp;pressure;altitude;pressure_sealevel;temperature;humidity
18850;BME280;4989;48.772;9.154;2023-12-22T00:01:15;96740.91;;;10.03;100.00
18850;BME280;4989;48.772;9.154;2023-12-22T00:06:19;96726.47;;;9.35;100.00
18850;BME280;4989;48.772;9.154;2023-12-22T00:11:21;96716.91;;;8.55;100.00
18850;BME280;4989;48.772;9.154;2023-12-22T00:16:24;96725.50;;;8.28;100.00
18850;BME280;4989;48.772;9.154;2023-12-22T00:21:27;96723.25;;;8.26;100.00
18850;BME280;4989;48.772;9.154;2023-12-22T00:26:30;96689.66;;;8.37;100.00
18850;BME280;4989;48.772;9.154;2023-12-22T00:31:32;96696.38;;;8.45;100.00
18850;BME280;4989;48.772;9.154;2023-12-22T00:36:35;96727.38;;;8.88;100.00
18850;BME280;4989;48.772;9.154;2023-12-22T00:41:38;96767.94;;;9.23;100.00
18850;BME280;4989;48.772;9.154;2023-12-22T00:46:40;96784.03;;;9.70;100.00
18850;BME280;4989;48.772;9.154;2023-12-22T00:51:43;96788.09;;;9.97;100.00
18850;BME280;4989;48.772;9.154;2023-12-22T00:56:45;96797.50;;;9.83;100.00
18850;BME280;4989;48.772;9.154;2023-12-22T01:01:48;96795.84;;;9.23;100.00
18850;BME280;4989;48.772;9.154;2023-12-22T01:06:51;96766.47;;;9.00;100.00
18850;BME280;4989;48.772;9.154;2023-12-22T01:11:55;96768.56;;;8.61;100.00
18850;BME280;4989;48.772;9.154;2023-12-22T01:16:58;96766.84;;;8.54;100.00
18850;BME280;4989;48.772;9.154;2023-12-22T01:22:02;96748.34;;;8.40;100.00
18850;BME280;4989;48.772;9.154;2023-12-22T01:27:05;96749.06;;;8.88;100.00
18850;BME280;4989;48.772;9.154;2023-12-22T01:32:07;96744.59;;;8.72;100.00
18850;BME280;4989;48.772;9.154;2023-12-22T01:37:10;96741.63;;;8.32;100.00
18850;BME280;4989;48.772;9.154;2023-12-22T01:42:13;96760.19;;;8.20;100.00
18850;BME280;4989;48.772;9.154;2023-12-22T01:47:15;96766.44;;;8.04;100.00
18850;BME280;4989;48.772;9.154;2023-12-22T01:52:18;96786.78;;;8.35;100.00
18850;BME280;4989;48.772;9.154;2023-12-22T01:57:21;96787.53;;;8.48;100.00
18850;BME280;4989;48.772;9.154;2023-12-22T02:02:24;96800.09;;;8.16;100.00
18850;BME280;4989;48.772;9.154;2023-12-22T02:07:27;96801.41;;;8.24;100.00
18850;BME280;4989;48.772;9.154;2023-12-22T02:12:30;96784.53;;;7.95;100.00
18850;BME280;4989;48.772;9.154;2023-12-22T02:17:35;96798.50;;;7.80;100.00
18850;BME280;4989;48.772;9.154;2023-12-22T02:22:40;96814.94;;;7.73;100.00
18850;BME280;4989;48.772;9.154;2023-12-22T02:27:44;96818.97;;;7.82;100.00
18850;BME280;4989;48.772;9.154;2023-12-22T02:32:51;96807.47;;;8.16;100.00
18850;BME280;4989;48.772;9.154;2023-12-22T02:37:57;96828.91;;;7.97;100.00
18850;BME280;4989;48.772;9.154;2023-12-22T02:43:02;96820.25;;;7.90;100.00
18850;BME280;4989;48.772;9.154;2023-12-22T02:48:05;96808.25;;;7.91;100.00
18850;BME280;4989;48.772;9.154;2023-12-22T02:53:08;96774.16;;;7.80;100.00
18850;BME280;4989;48.772;9.154;2023-12-22T02:58:11;96779.25;;;7.91;100.00
18850;BME280;4989;48.772;9.154;2023-12-22T03:03:14;96801.84;;;8.10;100.00
18850;BME280;4989;48.772;9.154;2023-12-22T03:08:17;96780.44;;;8.03;100.00
18850;BME280;4989;48.772;9.154;2023-12-22T03:13:19;96776.22;;;8.02;100.00
18850;BME280;4989;48.772;9.154;2023-12-22T03:18:22;96777.63;;;7.94;100.00
18850;BME280;4989;48.772;9.154;2023-12-22T03:23:25;96779.00;;;7.98;100.00
18850;BME280;4989;48.772;9.154;2023-12-22T03:28:27;96784.44;;;8.11;100.00
18850;BME280;4989;48.772;9.154;2023-12-22T03:33:30;96790.16;;;8.26;100.00
18850;BME280;4989;48.772;9.154;2023-12-22T03:38:33;96816.44;;;8.25;100.00
18850;BME280;4989;48.772;9.154;2023-12-22T03:43:36;96825.44;;;8.48;100.00
18850;BME280;4989;48.772;9.154;2023-12-22T03:48:39;96815.59;;;8.16;100.00
18850;BME280;4989;48.772;9.154;2023-12-22T03:53:42;96837.34;;;8.38;100.00
18850;BME280;4989;48.772;9.154;2023-12-22T03:58:44;96835.28;;;8.16;100.00
18850;BME280;4989;48.772;9.154;2023-12-22T04:03:47;96824.38;;;8.45;100.00
18850;BME280;4989;48.772;9.154;2023-12-22T04:08:49;96832.78;;;8.35;100.00
18850;BME280;4989;48.772;9.154;2023-12-22T04:13:52;96839.94;;;8.29;100.00
18850;BME280;4989;48.772;9.154;2023-12-22T04:18:55;96843.28;;;8.20;100.00
18850;BME280;4989;48.772;9.154;2023-12-22T04:23:58;96820.91;;;8.19;100.00
18850;BME280;4989;48.772;9.154;2023-12-22T04:29:00;96846.09;;;7.78;100.00
18850;BME280;4989;48.772;9.154;2023-12-22T04:34:03;96840.13;;;7.70;100.00
18850;BME280;4989;48.772;9.154;2023-12-22T04:39:06;96832.13;;;7.67;100.00
18850;BME280;4989;48.772;9.154;2023-12-22T04:44:09;96836.38;;;7.93;100.00
18850;BME280;4989;48.772;9.154;2023-12-22T04:49:12;96831.94;;;7.87;100.00
18850;BME280;4989;48.772;9.154;2023-12-22T04:54:15;96824.03;;;7.79;100.00
18850;BME280;4989;48.772;9.154;2023-12-22T04:59:17;96820.56;;;7.79;100.00
18850;BME280;4989;48.772;9.154;2023-12-22T05:04:20;96848.19;;;7.87;100.00
18850;BME280;4989;48.772;9.154;2023-12-22T05:09:23;96854.34;;;7.87;100.00
18850;BME280;4989;48.772;9.154;2023-12-22T05:14:27;96875.25;;;7.99;100.00
18850;BME280;4989;48.772;9.154;2023-12-22T05:19:30;96875.00;;;7.94;100.00
18850;BME280;4989;48.772;9.154;2023-12-22T05:24:32;96884.41;;;7.89;100.00
18850;BME280;4989;48.772;9.154;2023-12-22T05:29:35;96888.75;;;7.99;100.00
18850;BME280;4989;48.772;9.154;2023-12-22T05:34:38;96899.75;;;7.79;100.00
18850;BME280;4989;48.772;9.154;2023-12-22T05:39:40;96904.66;;;7.85;100.00
18850;BME280;4989;48.772;9.154;2023-12-22T05:44:44;96902.34;;;7.83;100.00
18850;BME280;4989;48.772;9.154;2023-12-22T05:49:48;96896.28;;;7.79;100.00
18850;BME280;4989;48.772;9.154;2023-12-22T05:54:51;96910.06;;;7.85;100.00
18850;BME280;4989;48.772;9.154;2023-12-22T05:59:54;96925.69;;;8.06;100.00
18850;BME280;4989;48.772;9.154;2023-12-22T06:04:56;96921.78;;;8.07;100.00
18850;BME280;4989;48.772;9.154;2023-12-22T06:09:59;96944.97;;;8.08;100.00
18850;BME280;4989;48.772;9.154;2023-12-22T06:15:02;96940.19;;;8.12;100.00
18850;BME280;4989;48.772;9.154;2023-12-22T06:20:05;96931.31;;;8.24;100.00
18850;BME280;4989;48.772;9.154;2023-12-22T06:25:08;96942.91;;;8.25;100.00
18850;BME280;4989;48.772;9.154;2023-12-22T06:30:12;96965.13;;;8.33;100.00
18850;BME280;4989;48.772;9.154;2023-12-22T06:35:15;96984.88;;;8.46;100.00
18850;BME280;4989;48.772;9.154;2023-12-22T06:40:19;97001.63;;;8.41;100.00
18850;BME280;4989;48.772;9.154;2023-12-22T06:45:22;96996.63;;;8.26;100.00
18850;BME280;4989;48.772;9.154;2023-12-22T06:50:24;96991.09;;;8.17;100.00
18850;BME280;4989;48.772;9.154;2023-12-22T06:55:27;97013.28;;;8.25;100.00
18850;BME280;4989;48.772;9.154;2023-12-22T07:00:30;97007.31;;;8.17;100.00
18850;BME280;4989;48.772;9.154;2023-12-22T07:05:33;97025.28;;;8.11;100.00
18850;BME280;4989;48.772;9.154;2023-12-22T07:10:39;97026.22;;;8.04;100.00
18850;BME280;4989;48.772;9.154;2023-12-22T07:15:42;97021.75;;;7.98;100.00
18850;BME280;4989;48.772;9.154;2023-12-22T07:20:45;97050.66;;;8.01;100.00
18850;BME280;4989;48.772;9.154;2023-12-22T07:25:48;97029.72;;;7.89;100.00
18850;BME280;4989;48.772;9.154;2023-12-22T07:30:51;97042.94;;;7.87;100.00
18850;BME280;4989;48.772;9.154;2023-12-22T07:35:55;97057.97;;;7.88;100.00
18850;BME280;4989;48.772;9.154;2023-12-22T07:40:58;97065.41;;;7.84;100.00
18850;BME280;4989;48.772;9.154;2023-12-22T07:46:01;97059.81;;;7.91;100.00
18850;BME280;4989;48.772;9.154;2023-12-22T07:51:05;97065.25;;;7.91;100.00
18850;BME280;4989;48.772;9.154;2023-12-22T07:56:07;97051.56;;;7.82;100.00
18850;BME280;4989;48.772;9.154;2023-12-22T08:01:10;97038.25;;;7.58;100.00
18850;BME280;4989;48.772;9.154;2023-12-22T08:06:13;97056.50;;;7.54;100.00
18850;BME280;4989;48.772;9.154;2023-12-22T08:11:16;97049.41;;;7.44;100.00
18850;BME280;4989;48.772;9.154;2023-12-22T08:16:19;97060.38;;;7.37;100.00
18850;BME280;4989;48.772;9.154;2023-12-22T08:21:22;97059.03;;;7.45;100.00
18850;BME280;4989;48.772;9.154;2023-12-22T08:26:39;97065.44;;;7.34;100.00
18850;BME280;4989;48.772;9.154;2023-12-22T08:31:42;97057.03;;;7.32;100.00
18850;BME280;4989;48.772;9.154;2023-12-22T08:36:46;97045.53;;;7.45;100.00
18850;BME280;4989;48.772;9.154;2023-12-22T08:41:49;97056.91;;;7.69;100.00
18850;BME280;4989;48.772;9.154;2023-12-22T08:46:52;97049.00;;;7.91;100.00
18850;BME280;4989;48.772;9.154;2023-12-22T08:51:55;97053.56;;;7.77;100.00
18850;BME280;4989;48.772;9.154;2023-12-22T08:56:57;97062.19;;;7.89;100.00
18850;BME280;4989;48.772;9.154;2023-12-22T09:02:00;97054.59;;;7.84;100.00
18850;BME280;4989;48.772;9.154;2023-12-22T09:07:03;97061.63;;;7.81;100.00
18850;BME280;4989;48.772;9.154;2023-12-22T09:12:06;97070.50;;;7.82;100.00
18850;BME280;4989;48.772;9.154;2023-12-22T09:17:09;97073.84;;;7.86;100.00
18850;BME280;4989;48.772;9.154;2023-12-22T09:22:12;97091.09;;;7.92;100.00
18850;BME280;4989;48.772;9.154;2023-12-22T09:27:15;97087.44;;;7.98;100.00
18850;BME280;4989;48.772;9.154;2023-12-22T09:32:17;97091.59;;;8.03;100.00
18850;BME280;4989;48.772;9.154;2023-12-22T09:37:20;97093.94;;;8.17;100.00
18850;BME280;4989;48.772;9.154;2023-12-22T09:42:25;97098.66;;;8.13;100.00
18850;BME280;4989;48.772;9.154;2023-12-22T09:47:29;97111.16;;;8.23;100.00
18850;BME280;4989;48.772;9.154;2023-12-22T09:52:35;97120.78;;;8.24;100.00
18850;BME280;4989;48.772;9.154;2023-12-22T09:57:40;97111.31;;;8.33;100.00
18850;BME280;4989;48.772;9.154;2023-12-22T10:02:43;97110.56;;;8.32;100.00
18850;BME280;4989;48.772;9.154;2023-12-22T10:07:48;97106.00;;;8.58;100.00
18850;BME280;4989;48.772;9.154;2023-12-22T10:12:52;97096.47;;;8.54;100.00
18850;BME280;4989;48.772;9.154;2023-12-22T10:17:55;97071.84;;;8.48;100.00
18850;BME280;4989;48.772;9.154;2023-12-22T10:22:58;97064.59;;;8.45;100.00
18850;BME280;4989;48.772;9.154;2023-12-22T10:28:01;97046.50;;;8.55;100.00
18850;BME280;4989;48.772;9.154;2023-12-22T10:33:04;97041.22;;;8.51;100.00
18850;BME280;4989;48.772;9.154;2023-12-22T10:38:08;97028.97;;;8.59;100.00
18850;BME280;4989;48.772;9.154;2023-12-22T10:43:11;97030.63;;;8.69;100.00
18850;BME280;4989;48.772;9.154;2023-12-22T10:48:13;97014.78;;;8.55;100.00
18850;BME280;4989;48.772;9.154;2023-12-22T10:53:16;97001.75;;;8.50;100.00
18850;BME280;4989;48.772;9.154;2023-12-22T10:58:23;96996.56;;;8.43;100.00
18850;BME280;4989;48.772;9.154;2023-12-22T11:03:27;97001.34;;;8.39;100.00
18850;BME280;4989;48.772;9.154;2023-12-22T11:08:33;97000.63;;;8.35;100.00
18850;BME280;4989;48.772;9.154;2023-12-22T11:13:38;96986.78;;;8.33;100.00
18850;BME280;4989;48.772;9.154;2023-12-22T11:18:41;96996.28;;;8.24;100.00
18850;BME280;4989;48.772;9.154;2023-12-22T11:23:46;97002.56;;;8.21;100.00
18850;BME280;4989;48.772;9.154;2023-12-22T11:28:51;96984.69;;;8.11;100.00
18850;BME280;4989;48.772;9.154;2023-12-22T11:33:55;96976.75;;;8.04;100.00
18850;BME280;4989;48.772;9.154;2023-12-22T11:39:11;96974.59;;;7.99;100.00
18850;BME280;4989;48.772;9.154;2023-12-22T11:44:13;96963.84;;;7.95;100.00
18850;BME280;4989;48.772;9.154;2023-12-22T11:49:16;96964.81;;;7.89;100.00
18850;BME280;4989;48.772;9.154;2023-12-22T11:59:47;96931.00;;;7.80;100.00
18850;BME280;4989;48.772;9.154;2023-12-22T12:04:53;96921.53;;;7.89;100.00
18850;BME280;4989;48.772;9.154;2023-12-22T12:09:56;96916.22;;;7.85;100.00
18850;BME280;4989;48.772;9.154;2023-12-22T12:15:09;96907.22;;;7.75;100.00
18850;BME280;4989;48.772;9.154;2023-12-22T12:20:12;96897.50;;;7.91;100.00
18850;BME280;4989;48.772;9.154;2023-12-22T12:25:15;96893.19;;;7.93;100.00
18850;BME280;4989;48.772;9.154;2023-12-22T12:30:31;96878.13;;;7.79;100.00
18850;BME280;4989;48.772;9.154;2023-12-22T12:35:35;96872.06;;;7.75;100.00
18850;BME280;4989;48.772;9.154;2023-12-22T12:40:45;96874.63;;;7.66;100.00
18850;BME280;4989;48.772;9.154;2023-12-22T12:45:52;96867.19;;;7.70;100.00
18850;BME280;4989;48.772;9.154;2023-12-22T12:50:55;96858.72;;;7.68;100.00
18850;BME280;4989;48.772;9.154;2023-12-22T12:56:03;96855.59;;;7.70;100.00
18850;BME280;4989;48.772;9.154;2023-12-22T13:01:08;96867.06;;;7.74;100.00
18850;BME280;4989;48.772;9.154;2023-12-22T13:06:11;96873.22;;;7.74;100.00
18850;BME280;4989;48.772;9.154;2023-12-22T13:11:13;96868.50;;;7.78;100.00
18850;BME280;4989;48.772;9.154;2023-12-22T13:16:20;96870.47;;;7.91;100.00
18850;BME280;4989;48.772;9.154;2023-12-22T13:21:24;96851.56;;;8.29;100.00
18850;BME280;4989;48.772;9.154;2023-12-22T13:26:27;96840.38;;;8.65;100.00
18850;BME280;4989;48.772;9.154;2023-12-22T13:31:31;96854.63;;;8.79;100.00
18850;BME280;4989;48.772;9.154;2023-12-22T13:36:35;96838.78;;;8.90;100.00
18850;BME280;4989;48.772;9.154;2023-12-22T13:41:40;96850.25;;;8.94;100.00
18850;BME280;4989;48.772;9.154;2023-12-22T13:46:44;96859.97;;;9.04;100.00
18850;BME280;4989;48.772;9.154;2023-12-22T13:51:48;96863.63;;;9.10;100.00
18850;BME280;4989;48.772;9.154;2023-12-22T13:56:51;96866.19;;;9.27;100.00
18850;BME280;4989;48.772;9.154;2023-12-22T14:01:53;96869.88;;;9.33;100.00
18850;BME280;4989;48.772;9.154;2023-12-22T14:06:56;96863.50;;;9.27;100.00
18850;BME280;4989;48.772;9.154;2023-12-22T14:11:59;96850.94;;;9.42;100.00
18850;BME280;4989;48.772;9.154;2023-12-22T14:17:07;96864.19;;;9.40;100.00
18850;BME280;4989;48.772;9.154;2023-12-22T14:22:10;96873.91;;;9.50;100.00
18850;BME280;4989;48.772;9.154;2023-12-22T14:27:13;96890.19;;;9.50;100.00
18850;BME280;4989;48.772;9.154;2023-12-22T14:32:15;96891.69;;;9.51;100.00
18850;BME280;4989;48.772;9.154;2023-12-22T14:37:21;96901.72;;;9.63;100.00
18850;BME280;4989;48.772;9.154;2023-12-22T14:42:24;96912.84;;;9.56;100.00
18850;BME280;4989;48.772;9.154;2023-12-22T14:47:26;96905.31;;;9.60;100.00
18850;BME280;4989;48.772;9.154;2023-12-22T14:52:30;96916.72;;;9.55;100.00
18850;BME280;4989;48.772;9.154;2023-12-22T14:57:35;96923.63;;;9.69;100.00
18850;BME280;4989;48.772;9.154;2023-12-22T15:02:38;96921.16;;;9.84;100.00
18850;BME280;4989;48.772;9.154;2023-12-22T15:07:41;96922.81;;;10.13;100.00
18850;BME280;4989;48.772;9.154;2023-12-22T15:12:44;96927.16;;;9.79;100.00
18850;BME280;4989;48.772;9.154;2023-12-22T15:17:47;96931.56;;;9.63;100.00
18850;BME280;4989;48.772;9.154;2023-12-22T15:22:51;96947.84;;;9.63;100.00
18850;BME280;4989;48.772;9.154;2023-12-22T15:27:54;96947.97;;;9.60;100.00
18850;BME280;4989;48.772;9.154;2023-12-22T15:32:57;96945.44;;;9.66;100.00
18850;BME280;4989;48.772;9.154;2023-12-22T15:38:00;96947.84;;;9.85;100.00
18850;BME280;4989;48.772;9.154;2023-12-22T15:43:02;96963.09;;;9.92;100.00
18850;BME280;4989;48.772;9.154;2023-12-22T15:48:05;96965.75;;;9.83;100.00
18850;BME280;4989;48.772;9.154;2023-12-22T15:53:08;96961.94;;;9.93;100.00
18850;BME280;4989;48.772;9.154;2023-12-22T15:58:11;96974.22;;;9.85;100.00
18850;BME280;4989;48.772;9.154;2023-12-22T16:03:14;96977.00;;;9.94;100.00
18850;BME280;4989;48.772;9.154;2023-12-22T16:08:17;96997.63;;;9.92;100.00
18850;BME280;4989;48.772;9.154;2023-12-22T16:13:19;96981.81;;;9.90;100.00
18850;BME280;4989;48.772;9.154;2023-12-22T16:18:24;96985.69;;;9.89;100.00
18850;BME280;4989;48.772;9.154;2023-12-22T16:23:27;96983.50;;;9.97;100.00
18850;BME280;4989;48.772;9.154;2023-12-22T16:28:29;96986.97;;;9.97;100.00
18850;BME280;4989;48.772;9.154;2023-12-22T16:33:32;96990.63;;;10.25;100.00
18850;BME280;4989;48.772;9.154;2023-12-22T16:38:35;97013.94;;;10.14;100.00
18850;BME280;4989;48.772;9.154;2023-12-22T16:43:37;97014.66;;;10.27;100.00
18850;BME280;4989;48.772;9.154;2023-12-22T16:48:40;97009.56;;;10.29;100.00
18850;BME280;4989;48.772;9.154;2023-12-22T16:53:43;97011.72;;;9.99;100.00
18850;BME280;4989;48.772;9.154;2023-12-22T16:58:46;97015.63;;;9.98;100.00
18850;BME280;4989;48.772;9.154;2023-12-22T17:03:49;97032.69;;;9.99;100.00
18850;BME280;4989;48.772;9.154;2023-12-22T17:08:51;97036.03;;;10.03;100.00
18850;BME280;4989;48.772;9.154;2023-12-22T17:13:54;97025.84;;;9.94;100.00
18850;BME280;4989;48.772;9.154;2023-12-22T17:18:57;97030.00;;;9.86;100.00
18850;BME280;4989;48.772;9.154;2023-12-22T17:24:00;97034.44;;;9.93;100.00
18850;BME280;4989;48.772;9.154;2023-12-22T17:29:03;97028.25;;;9.92;100.00
18850;BME280;4989;48.772;9.154;2023-12-22T17:34:06;97040.56;;;9.84;100.00
18850;BME280;4989;48.772;9.154;2023-12-22T17:39:10;97040.31;;;9.91;100.00
18850;BME280;4989;48.772;9.154;2023-12-22T17:44:13;97066.00;;;9.77;100.00
18850;BME280;4989;48.772;9.154;2023-12-22T17:49:16;97067.63;;;9.75;100.00
18850;BME280;4989;48.772;9.154;2023-12-22T17:54:19;97069.53;;;9.87;100.00
18850;BME280;4989;48.772;9.154;2023-12-22T17:59:21;97091.63;;;9.98;100.00
18850;BME280;4989;48.772;9.154;2023-12-22T18:04:24;97084.63;;;10.23;100.00
18850;BME280;4989;48.772;9.154;2023-12-22T18:09:27;97088.97;;;10.20;100.00
18850;BME280;4989;48.772;9.154;2023-12-22T18:14:30;97082.13;;;10.16;100.00
18850;BME280;4989;48.772;9.154;2023-12-22T18:19:32;97090.13;;;9.97;100.00
18850;BME280;4989;48.772;9.154;2023-12-22T18:24:35;97091.13;;;9.91;100.00
18850;BME280;4989;48.772;9.154;2023-12-22T18:29:38;97114.03;;;9.77;100.00
18850;BME280;4989;48.772;9.154;2023-12-22T18:34:41;97115.78;;;9.71;100.00
18850;BME280;4989;48.772;9.154;2023-12-22T18:39:43;97126.97;;;9.73;100.00
18850;BME280;4989;48.772;9.154;2023-12-22T18:44:46;97108.06;;;9.82;100.00
18850;BME280;4989;48.772;9.154;2023-12-22T18:49:49;97100.81;;;9.79;100.00
18850;BME280;4989;48.772;9.154;2023-12-22T18:54:52;97112.41;;;9.79;100.00
18850;BME280;4989;48.772;9.154;2023-12-22T18:59:55;97118.59;;;9.80;100.00
18850;BME280;4989;48.772;9.154;2023-12-22T19:04:58;97126.56;;;9.74;100.00
18850;BME280;4989;48.772;9.154;2023-12-22T19:10:01;97147.56;;;9.96;100.00
18850;BME280;4989;48.772;9.154;2023-12-22T19:15:04;97162.00;;;9.80;100.00
18850;BME280;4989;48.772;9.154;2023-12-22T19:20:07;97171.59;;;9.72;100.00
18850;BME280;4989;48.772;9.154;2023-12-22T19:25:10;97168.19;;;9.93;100.00
18850;BME280;4989;48.772;9.154;2023-12-22T19:30:14;97167.44;;;9.80;100.00
18850;BME280;4989;48.772;9.154;2023-12-22T19:35:18;97155.22;;;9.62;100.00
18850;BME280;4989;48.772;9.154;2023-12-22T19:40:21;97164.63;;;9.71;100.00
18850;BME280;4989;48.772;9.154;2023-12-22T19:45:24;97164.63;;;9.71;100.00
18850;BME280;4989;48.772;9.154;2023-12-22T19:50:27;97148.91;;;9.53;100.00
18850;BME280;4989;48.772;9.154;2023-12-22T19:55:30;97151.84;;;9.58;100.00
18850;BME280;4989;48.772;9.154;2023-12-22T20:00:33;97175.69;;;9.76;100.00
18850;BME280;4989;48.772;9.154;2023-12-22T20:05:36;97165.97;;;9.53;100.00
18850;BME280;4989;48.772;9.154;2023-12-22T20:10:39;97165.53;;;9.42;100.00
18850;BME280;4989;48.772;9.154;2023-12-22T20:15:42;97153.16;;;9.41;100.00
18850;BME280;4989;48.772;9.154;2023-12-22T20:20:45;97175.16;;;9.56;100.00
18850;BME280;4989;48.772;9.154;2023-12-22T20:25:50;97179.41;;;9.44;100.00
18850;BME280;4989;48.772;9.154;2023-12-22T20:30:53;97192.41;;;9.49;100.00
18850;BME280;4989;48.772;9.154;2023-12-22T20:35:56;97217.06;;;9.80;100.00
18850;BME280;4989;48.772;9.154;2023-12-22T20:40:58;97249.06;;;9.47;100.00
18850;BME280;4989;48.772;9.154;2023-12-22T20:46:01;97224.97;;;9.36;100.00
18850;BME280;4989;48.772;9.154;2023-12-22T20:51:04;97233.84;;;9.37;100.00
18850;BME280;4989;48.772;9.154;2023-12-22T20:56:20;97241.06;;;9.56;100.00
18850;BME280;4989;48.772;9.154;2023-12-22T21:01:23;97247.63;;;9.43;100.00
18850;BME280;4989;48.772;9.154;2023-12-22T21:06:28;97239.94;;;9.41;100.00
18850;BME280;4989;48.772;9.154;2023-12-22T21:11:31;97255.59;;;9.62;100.00
18850;BME280;4989;48.772;9.154;2023-12-22T21:16:33;97262.50;;;9.38;100.00
18850;BME280;4989;48.772;9.154;2023-12-22T21:21:43;97265.63;;;9.36;100.00
18850;BME280;4989;48.772;9.154;2023-12-22T21:26:46;97261.81;;;9.34;100.00
18850;BME280;4989;48.772;9.154;2023-12-22T21:31:49;97259.13;;;9.47;100.00
18850;BME280;4989;48.772;9.154;2023-12-22T21:36:52;97261.13;;;9.72;100.00
18850;BME280;4989;48.772;9.154;2023-12-22T21:41:54;97274.66;;;9.46;100.00
18850;BME280;4989;48.772;9.154;2023-12-22T21:46:57;97266.84;;;9.48;100.00
18850;BME280;4989;48.772;9.154;2023-12-22T21:52:00;97287.22;;;9.40;100.00
18850;BME280;4989;48.772;9.154;2023-12-22T21:57:03;97279.72;;;9.31;100.00
18850;BME280;4989;48.772;9.154;2023-12-22T22:02:07;97293.97;;;9.48;100.00
18850;BME280;4989;48.772;9.154;2023-12-22T22:07:10;97302.25;;;9.28;100.00
18850;BME280;4989;48.772;9.154;2023-12-22T22:12:13;97329.00;;;9.43;100.00
18850;BME280;4989;48.772;9.154;2023-12-22T22:17:15;97323.97;;;9.28;100.00
18850;BME280;4989;48.772;9.154;2023-12-22T22:22:18;97309.59;;;9.15;100.00
18850;BME280;4989;48.772;9.154;2023-12-22T22:27:21;97329.00;;;9.13;100.00
18850;BME280;4989;48.772;9.154;2023-12-22T22:32:23;97334.25;;;9.21;100.00
18850;BME280;4989;48.772;9.154;2023-12-22T22:37:26;97340.59;;;9.43;100.00
18850;BME280;4989;48.772;9.154;2023-12-22T22:42:29;97349.47;;;9.31;100.00
18850;BME280;4989;48.772;9.154;2023-12-22T22:47:33;97348.81;;;9.27;100.00
18850;BME280;4989;48.772;9.154;2023-12-22T22:52:36;97344.47;;;9.29;100.00
18850;BME280;4989;48.772;9.154;2023-12-22T22:57:39;97353.03;;;9.28;100.00
18850;BME280;4989;48.772;9.154;2023-12-22T23:02:42;97355.94;;;9.21;100.00
18850;BME280;4989;48.772;9.154;2023-12-22T23:07:45;97350.69;;;9.13;100.00
18850;BME280;4989;48.772;9.154;2023-12-22T23:12:47;97367.09;;;9.23;100.00
18850;BME280;4989;48.772;9.154;2023-12-22T23:17:50;97373.81;;;9.18;100.00
18850;BME280;4989;48.772;9.154;2023-12-22T23:22:53;97390.84;;;9.18;100.00
18850;BME280;4989;48.772;9.154;2023-12-22T23:27:57;97392.34;;;9.20;100.00
18850;BME280;4989;48.772;9.154;2023-12-22T23:33:03;97397.78;;;9.20;100.00
18850;BME280;4989;48.772;9.154;2023-12-22T23:38:05;97385.06;;;9.33;100.00
18850;BME280;4989;48.772;9.154;2023-12-22T23:43:08;97396.91;;;9.23;100.00
18850;BME280;4989;48.772;9.154;2023-12-22T23:48:11;97386.00;;;9.26;100.00
18850;BME280;4989;48.772;9.154;2023-12-22T23:53:13;97370.28;;;9.34;100.00
18850;BME280;4989;48.772;9.154;2023-12-22T23:58:16;97411.69;;;9.22;100.00
